首页
METAR-TAF:

METAR-TAF

机场 :

克基拉岛扬尼斯·卡波迪斯特里亚斯国际机场

克基拉島, 希腊

纬度: 39-37N, 经度: 019-55E, 海拔: 2米

当前天气观测

该预报发布于32分钟前的21:20 UTC
风速3节,风向西南
温度 21°C
湿度 69%
气压 1014 hPa
能见度10公里或以上
1500米以下无云,无积雨云

METAR: LGKR 182120Z 23003KT CAVOK 21/15 Q1014 NOSIG

时间: 00:52 (21:52 UTC)

预报

该预报发布于4小时和52分钟前的17:00 UTC
预报有效从18日的 18点(UTC)到 19日的 18点(UTC)
风速10节,风向北转西北
能见度10公里或以上
少量云层高于2000英尺

TAF: LGKR 181700Z 1818/1918 33010KT 9999 FEW020

超过4000个机场的气象观测和天气预报(METAR&TAF报告)。

可查询的气象台以黄色和红色小点在地图上表示。

将鼠标移到小点上方,可查看气象台名称。

然后点击查看天气观测和预报。

如需切换地图:点击带黑十字的绿色按钮放大地图;点击带横线的绿色按钮缩小地图;或者点击绿色箭头查看邻近地区的地图。


METAR-TAF: